Calgary (YYC/CYYC)

Information

Location
Calgary, AB, Canada
Local Time
23:10 / 11:10 pm
GMT Time
06:10 / 6:10 am
Gates
No FAA reported delays
METAR CYYC 140600Z 31008KT 15SM FEW250 01/M05 A3035 RMK CI1 SLP325
TAF TAF CYYC 140538Z 1406/1506 32006KT P6SM SKC FM141200 26005KT P6SM SCT180 BKN240 FM142100 26010KT P6SM SCT220 RMK NXT FCST BY 140900Z